Lisboa, Portugal

1:46 PM -01 en Febrero 22, 2018 (GMT -0100)
Portela | | Change Station

Alt 233 ft 38.78 °N, 9.11 °W | Updated 59 seconds ago

Despejado
Despejado
59.7 ° F
Sensación térmica 59.7 ° F
N
2.0
Viento Variable Viento desde ESE
Gusts 6.0 mph

Hoy
Alta -- | Baja -- ° F
--% Posibilidad de precipitaciones
Ayer
Alta -- | Baja -- ° F
Precip. -- pul
Presión 29.80 pul
Visibilidad -9999.0 Millas
Nubes
Punto de rocío 31 ° F
Humedad 34%
Precipitaciones No disponible.
Espesor de la nieve No disponible.
6:18 AM 5:21 PM
Creciente, 42% visible
METAR LPMT 221400Z 34006KT 310V020 CAVOK 15/02 Q1009
Presión 29.80 pul
Visibilidad -9999.0 Millas
Nubes
Punto de rocío 31 ° F
Humedad 34%
Precipitaciones No disponible.
Espesor de la nieve No disponible.
6:18 AM 5:21 PM
Creciente, 42% visible
METAR LPMT 221400Z 34006KT 310V020 CAVOK 15/02 Q1009

Get Severe Weather Alerts

Thanks for signing up!

Be on the lookout for a verification email in your inbox.

You'll start receiving the daily forecast at 6 AM.

×

10-Day Weather Forecast

×

Almanac

Astronomía

Feb. 22, 2018 Salida Puesta
Hora real
Crepúsculo civil
Crepúsculo náutico
Crepúsculo astronómico
Luna
Horas de luz
Horas de luz
Tomorrow will be .
, % of the Moon is Illuminated

Extremos de hoy

Máximos del país Bajas del país

Community

WunderPhotos

Category 6

Welcome to Category 6. This is the collective home for Weather Underground's featured writeups by Dr. Jeff Masters (right), Bob Henson (left), Chris Burt, and other regular contributors.

Nearby

Calidad del aire

  Calidad del aire Índice AQ Contaminante
Not available.

Grosos de nieve

Estación Profundido Altura

Actividad de terremotos

Ciudad Distance Mag. Tiempo y dato
Magnitud mínima muestra es 2,5.

Temperaturas de aguas costeras

Lugar Temperatura

Stations

Estaciones meteorológicas cercanas

Ubicación de la estación Temp. Vientos helados Punto de rocío Humedad Viento Precip. Alt Actualizado Tipo